MyWebLog Booking Liste

 

Nyhetsmelding

ENOL - Ørland Hovedflystasjon er åpen igjen

FRA AIP-SUP

Number Title Published Effective date Valid to File
37/2017 ENOL - Publication of updated AIP text pages and charts for Ørland airport 31.08.2017 14.09.2017 PERM PDF

I korte trekk fra tekstsiden i AIP for ENOL:

2 Forhåndsgodkjennelse påkrevd (PPR)

2.1 PPR fra Ørland Flystasjon er nødvendig for alle CIV fly som planlegger bruk av AD (LDG, TRNG, Take-Off). Kontakt WING OPS (REF AD 2.2) Forespørsel om PPR skal inneholde:

  • - ACFT -kallesignal / registrering
  • - Dato / tid
  • - Navn på ACFT-eier
  • - Navn på pilot
  • - Kontaktinformasjon

2.2 Tildelt PPR-nummer påføres FPL i rubrikk 18

Kopirett © 2017 Værnes Flyklubb. Alle rettigheter reservert.
Joomla! er fri programvare utgitt under GNU General Public License.
 

METAR

ENVA 211850Z 16018G28KT CAVOK 12/04 Q1020 NOSIG RMK WIND 670FT 17026KT

TAF ENVA 2118/2218 15012KT CAVOK TEMPO 2118/2212 16018G28KT

VFK på Facebook